createdAt,value
2023-05-11T00:00:25.420Z,60.92
2023-05-11T00:01:04.181Z,60.47
2023-05-11T00:01:36.527Z,60.70
2023-05-11T00:02:09.396Z,60.42
2023-05-11T00:02:41.159Z,60.70
2023-05-11T00:03:13.068Z,60.92
2023-05-11T00:03:46.012Z,61.13
2023-05-11T00:04:17.983Z,61.03
2023-05-11T00:04:49.736Z,60.95
2023-05-11T00:05:22.459Z,60.30
2023-05-11T00:05:54.106Z,61.17
2023-05-11T00:06:25.820Z,60.53
2023-05-11T00:06:57.503Z,60.22
2023-05-11T00:07:30.172Z,61.53
2023-05-11T00:08:03.197Z,61.17
2023-05-11T00:08:34.931Z,60.22
2023-05-11T00:09:07.646Z,61.10
2023-05-11T00:09:39.326Z,60.55
2023-05-11T00:10:11.342Z,60.78
2023-05-11T00:10:44.011Z,60.60
2023-05-11T00:11:15.674Z,61.00
2023-05-11T00:11:47.326Z,60.03
2023-05-11T00:12:20.045Z,61.10
2023-05-11T00:12:51.697Z,60.72
2023-05-11T00:13:23.300Z,60.65
2023-05-11T00:13:55.926Z,61.20
2023-05-11T00:14:27.655Z,60.90
2023-05-11T00:14:59.343Z,61.47
2023-05-11T00:15:31.226Z,60.35
2023-05-11T00:16:04.581Z,60.45
2023-05-11T00:16:36.478Z,60.95
2023-05-11T00:17:08.113Z,61.13
2023-05-11T00:17:40.802Z,61.08
2023-05-11T00:18:12.447Z,61.22
2023-05-11T00:18:44.155Z,60.75
2023-05-11T00:19:16.617Z,60.28
2023-05-11T00:19:49.365Z,61.30
2023-05-11T00:20:21.983Z,60.70
2023-05-11T00:20:54.110Z,60.58
2023-05-11T00:21:26.798Z,61.13
2023-05-11T00:21:58.845Z,61.08
2023-05-11T00:22:30.485Z,60.47
2023-05-11T00:23:03.497Z,60.70
2023-05-11T00:23:36.107Z,61.65
2023-05-11T00:24:08.434Z,61.00
2023-05-11T00:24:40.101Z,60.05
2023-05-11T00:25:12.785Z,60.78
2023-05-11T00:25:44.490Z,60.58
2023-05-11T00:26:16.178Z,61.20
2023-05-11T00:26:49.151Z,60.70
2023-05-11T00:27:21.789Z,60.30
2023-05-11T00:27:53.408Z,60.20
2023-05-11T00:28:25.184Z,60.80
2023-05-11T00:28:57.807Z,60.95
2023-05-11T00:29:29.483Z,60.38
2023-05-11T00:30:01.069Z,60.47
2023-05-11T00:30:33.732Z,60.72
2023-05-11T00:31:05.412Z,60.23
2023-05-11T00:31:37.465Z,60.00
2023-05-11T00:32:10.165Z,60.67
2023-05-11T00:32:41.966Z,61.33
2023-05-11T00:33:13.725Z,60.15
2023-05-11T00:33:46.361Z,60.33
2023-05-11T00:34:18.384Z,60.92
2023-05-11T00:34:50.032Z,60.10
2023-05-11T00:35:22.763Z,59.85
2023-05-11T00:35:54.383Z,60.40
2023-05-11T00:36:26.176Z,61.05
2023-05-11T00:36:57.815Z,60.40
2023-05-11T00:37:30.585Z,60.10
2023-05-11T00:38:03.607Z,60.38
2023-05-11T00:38:36.588Z,60.45
2023-05-11T00:39:09.826Z,60.47
2023-05-11T00:39:41.574Z,61.20
2023-05-11T00:40:13.272Z,60.13
2023-05-11T00:40:46.226Z,60.05
2023-05-11T00:41:17.839Z,60.33
2023-05-11T00:41:49.468Z,60.15
2023-05-11T00:42:22.128Z,60.35
2023-05-11T00:42:53.789Z,60.10
2023-05-11T00:43:25.732Z,60.65
2023-05-11T00:43:57.376Z,59.85
2023-05-11T00:44:30.009Z,59.75
2023-05-11T00:45:01.772Z,59.72
2023-05-11T00:45:33.544Z,60.35
2023-05-11T00:46:06.583Z,59.65
2023-05-11T00:46:38.566Z,59.95
2023-05-11T00:47:10.459Z,60.05
2023-05-11T00:47:42.340Z,60.95
2023-05-11T00:48:15.443Z,60.38
2023-05-11T00:48:47.325Z,60.13
2023-05-11T00:49:21.483Z,60.05
2023-05-11T00:49:54.590Z,59.95
2023-05-11T00:50:26.663Z,59.65
2023-05-11T00:50:58.934Z,59.72
2023-05-11T00:51:32.060Z,60.15
2023-05-11T00:52:04.082Z,60.83
2023-05-11T00:52:35.878Z,60.78
2023-05-11T00:53:09.847Z,59.97
2023-05-11T00:53:41.519Z,60.63
2023-05-11T00:54:15.722Z,60.95
2023-05-11T00:54:47.784Z,60.17
2023-05-11T00:55:20.914Z,60.00
2023-05-11T00:55:52.820Z,61.22
2023-05-11T00:56:24.533Z,60.57
2023-05-11T00:56:57.195Z,60.05
2023-05-11T00:57:30.509Z,61.08
2023-05-11T00:58:05.518Z,60.95
2023-05-11T00:58:38.410Z,60.08
2023-05-11T00:59:10.158Z,60.45
2023-05-11T00:59:41.877Z,60.55
2023-05-11T01:00:15.092Z,60.20
2023-05-11T01:00:47.975Z,60.40
2023-05-11T01:01:19.993Z,60.05
2023-05-11T01:01:52.907Z,60.15
2023-05-11T01:02:24.693Z,61.03
2023-05-11T01:02:56.560Z,60.50
2023-05-11T01:03:28.265Z,60.40
2023-05-11T01:04:01.010Z,60.85
2023-05-11T01:04:32.969Z,60.60
2023-05-11T01:05:04.975Z,60.50
2023-05-11T01:05:42.313Z,60.28
2023-05-11T01:06:16.657Z,60.65
2023-05-11T01:06:55.975Z,60.67
2023-05-11T01:07:33.340Z,60.95
2023-05-11T01:08:06.862Z,61.40
2023-05-11T01:08:42.350Z,60.25
2023-05-11T01:09:23.108Z,60.00
2023-05-11T01:10:00.071Z,61.08
2023-05-11T01:10:33.474Z,60.67
2023-05-11T01:11:09.347Z,60.60
2023-05-11T01:11:43.725Z,60.63
2023-05-11T01:12:19.423Z,60.92
2023-05-11T01:12:56.893Z,61.17
2023-05-11T01:13:31.702Z,60.90
2023-05-11T01:14:06.549Z,60.92
2023-05-11T01:14:42.523Z,61.03
2023-05-11T01:15:18.252Z,60.80
2023-05-11T01:15:54.243Z,60.67
2023-05-11T01:16:31.576Z,60.70
2023-05-11T01:17:05.984Z,60.30
2023-05-11T01:17:44.109Z,60.63
2023-05-11T01:18:20.999Z,61.25
2023-05-11T01:18:56.273Z,62.17
2023-05-11T01:19:39.418Z,61.15
2023-05-11T01:20:17.024Z,61.20
2023-05-11T01:20:49.876Z,61.25
2023-05-11T01:21:21.801Z,61.35
2023-05-11T01:21:53.544Z,61.22
2023-05-11T01:22:32.233Z,61.00
2023-05-11T01:23:18.227Z,61.38
2023-05-11T01:24:13.239Z,61.63
2023-05-11T01:24:49.174Z,61.20
2023-05-11T01:25:42.448Z,61.35
2023-05-11T01:26:31.534Z,61.13
2023-05-11T01:27:14.419Z,61.78
2023-05-11T01:28:03.985Z,61.58
2023-05-11T01:28:52.551Z,61.10
2023-05-11T01:29:41.124Z,61.83
2023-05-11T01:30:34.696Z,61.05
2023-05-11T01:31:08.523Z,61.53
2023-05-11T01:31:41.910Z,61.55
2023-05-11T01:32:17.867Z,60.88
2023-05-11T01:32:49.620Z,61.38
2023-05-11T01:33:25.446Z,61.30
2023-05-11T01:33:59.627Z,60.20
2023-05-11T01:34:33.266Z,61.13
2023-05-11T01:35:06.668Z,60.85
2023-05-11T01:35:42.441Z,61.03
2023-05-11T01:36:15.640Z,61.95
2023-05-11T01:36:49.408Z,61.33
2023-05-11T01:37:23.765Z,61.67
2023-05-11T01:37:58.092Z,60.78
2023-05-11T01:38:32.110Z,62.15
2023-05-11T01:39:06.542Z,61.67
2023-05-11T01:39:40.057Z,62.10
2023-05-11T01:40:13.729Z,62.25
2023-05-11T01:40:51.890Z,61.35
2023-05-11T01:41:24.852Z,61.67
2023-05-11T01:41:58.495Z,61.15
2023-05-11T01:42:33.396Z,61.28
2023-05-11T01:43:07.460Z,61.60
2023-05-11T01:43:40.082Z,62.38
2023-05-11T01:44:13.277Z,62.25
2023-05-11T01:44:49.362Z,61.50
2023-05-11T01:45:22.894Z,61.22
2023-05-11T01:46:00.045Z,62.08
2023-05-11T01:46:33.149Z,61.70
2023-05-11T01:47:05.228Z,61.80
2023-05-11T01:47:39.258Z,60.83
2023-05-11T01:48:13.907Z,60.97
2023-05-11T01:48:49.121Z,61.05
2023-05-11T01:49:22.775Z,61.88
2023-05-11T01:49:54.900Z,61.17
2023-05-11T01:50:26.799Z,62.00
2023-05-11T01:51:01.938Z,60.55
2023-05-11T01:51:34.747Z,60.80
2023-05-11T01:52:07.781Z,61.58
2023-05-11T01:52:41.682Z,61.25
2023-05-11T01:53:13.835Z,61.00
2023-05-11T01:53:46.345Z,60.88
2023-05-11T01:54:20.793Z,60.92
2023-05-11T01:54:53.938Z,61.92
2023-05-11T01:55:26.080Z,61.25
2023-05-11T01:55:59.515Z,60.75
2023-05-11T01:56:31.643Z,61.15
2023-05-11T01:57:03.773Z,60.60
2023-05-11T01:57:38.013Z,61.53
2023-05-11T01:58:11.077Z,61.33
2023-05-11T01:58:43.443Z,61.05
2023-05-11T01:59:17.577Z,61.03
2023-05-11T01:59:50.235Z,60.90
2023-05-11T02:00:22.692Z,60.90
2023-05-11T02:01:03.101Z,61.38
2023-05-11T02:01:35.837Z,61.38
2023-05-11T02:02:08.584Z,61.03
2023-05-11T02:02:41.576Z,60.88
2023-05-11T02:03:14.290Z,61.17
2023-05-11T02:03:46.698Z,61.05
2023-05-11T02:04:19.881Z,62.45
2023-05-11T02:04:51.798Z,61.42
2023-05-11T02:05:24.597Z,61.65
2023-05-11T02:05:58.607Z,61.40
2023-05-11T02:06:31.497Z,61.60
2023-05-11T02:07:03.920Z,62.25
2023-05-11T02:07:37.451Z,61.55
2023-05-11T02:08:10.336Z,60.95
2023-05-11T02:08:42.078Z,61.13
2023-05-11T02:09:17.354Z,61.60
2023-05-11T02:09:49.960Z,62.20
2023-05-11T02:10:24.948Z,62.03
2023-05-11T02:10:58.612Z,62.17
2023-05-11T02:11:31.090Z,62.33
2023-05-11T02:12:03.847Z,61.72
2023-05-11T02:12:38.881Z,62.67
2023-05-11T02:13:11.989Z,62.70
2023-05-11T02:13:45.779Z,61.33
2023-05-11T02:14:18.043Z,62.13
2023-05-11T02:14:51.903Z,62.60
2023-05-11T02:15:24.556Z,62.13
2023-05-11T02:15:57.424Z,62.75
2023-05-11T02:16:31.984Z,62.85
2023-05-11T02:17:05.302Z,61.35
2023-05-11T02:17:38.878Z,62.00
2023-05-11T02:18:12.509Z,61.72
2023-05-11T02:18:45.913Z,63.05
2023-05-11T02:19:18.034Z,61.55
2023-05-11T02:19:50.770Z,62.33
2023-05-11T02:20:24.591Z,62.20
2023-05-11T02:20:59.148Z,62.25
2023-05-11T02:21:32.534Z,61.85
2023-05-11T02:22:05.066Z,62.25
2023-05-11T02:22:38.264Z,61.83
2023-05-11T02:23:10.113Z,62.08
2023-05-11T02:23:43.062Z,62.50
2023-05-11T02:24:14.911Z,62.63
2023-05-11T02:24:46.915Z,61.58
2023-05-11T02:25:19.828Z,62.47
2023-05-11T02:25:52.367Z,62.75
2023-05-11T02:26:24.546Z,62.10
2023-05-11T02:26:56.964Z,62.47
2023-05-11T02:27:29.754Z,62.85
2023-05-11T02:28:02.703Z,62.05
2023-05-11T02:28:34.441Z,63.20
2023-05-11T02:29:08.063Z,62.28
2023-05-11T02:29:39.801Z,62.75
2023-05-11T02:30:12.883Z,62.55
2023-05-11T02:30:47.456Z,61.97
2023-05-11T02:31:20.463Z,61.65
2023-05-11T02:31:56.901Z,61.88
2023-05-11T02:32:31.696Z,61.72
2023-05-11T02:33:05.794Z,62.58
2023-05-11T02:33:43.290Z,62.35
2023-05-11T02:34:21.062Z,63.03
2023-05-11T02:34:57.551Z,62.35
2023-05-11T02:35:29.863Z,62.80
2023-05-11T02:36:03.948Z,62.72
2023-05-11T02:36:38.126Z,62.67
2023-05-11T02:37:13.094Z,62.53
2023-05-11T02:37:47.594Z,63.38
2023-05-11T02:38:21.270Z,62.05
2023-05-11T02:38:54.964Z,62.25
2023-05-11T02:39:31.856Z,62.33
2023-05-11T02:40:05.368Z,62.83
2023-05-11T02:40:39.862Z,62.60
2023-05-11T02:41:13.702Z,63.03
2023-05-11T02:41:46.409Z,62.50
2023-05-11T02:42:19.381Z,62.88
2023-05-11T02:42:55.181Z,62.55
2023-05-11T02:43:32.018Z,62.97
2023-05-11T02:44:08.467Z,62.08
2023-05-11T02:44:44.621Z,63.65
2023-05-11T02:45:21.582Z,61.72
2023-05-11T02:45:59.242Z,61.72
2023-05-11T02:46:34.048Z,62.25
2023-05-11T02:47:10.018Z,62.13
2023-05-11T02:47:43.757Z,62.45
2023-05-11T02:48:19.923Z,62.17
2023-05-11T02:48:55.010Z,62.08
2023-05-11T02:49:30.363Z,62.30
2023-05-11T02:50:04.183Z,62.22
2023-05-11T02:50:40.888Z,63.10
2023-05-11T02:51:14.350Z,61.78
2023-05-11T02:51:51.056Z,62.38
2023-05-11T02:52:24.938Z,62.83
2023-05-11T02:52:59.488Z,63.15
2023-05-11T02:53:33.366Z,62.42
2023-05-11T02:54:07.274Z,63.13
2023-05-11T02:54:42.618Z,62.42
2023-05-11T02:55:15.341Z,62.38
2023-05-11T02:55:48.367Z,62.13
2023-05-11T02:56:22.017Z,62.80
2023-05-11T02:56:56.479Z,62.35
2023-05-11T02:57:29.820Z,61.90
2023-05-11T02:58:06.441Z,62.45
2023-05-11T02:58:38.609Z,61.72
2023-05-11T02:59:31.875Z,62.47
2023-05-11T03:00:04.121Z,62.05
2023-05-11T03:00:35.949Z,62.08
2023-05-11T03:01:07.874Z,61.15
2023-05-11T03:01:40.716Z,62.70
2023-05-11T03:02:14.051Z,61.75
2023-05-11T03:02:46.750Z,62.28
2023-05-11T03:03:20.558Z,61.63
2023-05-11T03:03:52.592Z,62.15
2023-05-11T03:04:24.609Z,62.35
2023-05-11T03:04:57.563Z,62.08
2023-05-11T03:05:29.162Z,62.22
2023-05-11T03:06:00.826Z,62.60
2023-05-11T03:06:33.398Z,62.17
2023-05-11T03:07:07.530Z,62.05
2023-05-11T03:07:39.329Z,62.22
2023-05-11T03:08:11.014Z,62.67
2023-05-11T03:08:42.908Z,61.35
2023-05-11T03:09:16.308Z,62.10
2023-05-11T03:09:51.349Z,61.75
2023-05-11T03:10:23.599Z,61.92
2023-05-11T03:10:57.010Z,61.72
2023-05-11T03:11:28.881Z,61.55
2023-05-11T03:12:02.192Z,61.83
2023-05-11T03:12:37.059Z,61.30
2023-05-11T03:13:09.592Z,61.33
2023-05-11T03:13:41.862Z,61.35
2023-05-11T03:14:21.873Z,62.03
2023-05-11T03:14:53.790Z,61.10
2023-05-11T03:15:25.661Z,61.10
2023-05-11T03:16:00.130Z,61.95
2023-05-11T03:17:40.999Z,61.60
2023-05-11T03:18:20.222Z,61.45
2023-05-11T03:18:52.347Z,62.00
2023-05-11T03:19:24.446Z,63.17
2023-05-11T03:19:58.164Z,63.45
2023-05-11T03:20:30.775Z,63.67
2023-05-11T03:21:02.953Z,64.03
2023-05-11T03:21:37.307Z,64.40
2023-05-11T03:22:09.951Z,64.72
2023-05-11T03:22:42.161Z,63.87
2023-05-11T03:23:16.755Z,63.53
2023-05-11T03:23:49.633Z,62.85
2023-05-11T03:24:44.355Z,63.25
2023-05-11T03:25:17.873Z,64.55
2023-05-11T03:26:11.747Z,64.03
2023-05-11T03:26:48.780Z,63.45
2023-05-11T03:27:23.641Z,64.18
2023-05-11T03:27:56.412Z,63.60
2023-05-11T03:28:30.806Z,63.72
2023-05-11T03:29:10.221Z,64.25
2023-05-11T03:29:46.307Z,63.55
2023-05-11T03:30:20.494Z,63.30
2023-05-11T03:30:56.849Z,63.63
2023-05-11T03:31:29.595Z,63.85
2023-05-11T03:32:04.271Z,64.32
2023-05-11T03:32:41.311Z,64.25
2023-05-11T03:33:14.286Z,62.95
2023-05-11T03:33:46.553Z,64.50
2023-05-11T03:34:19.214Z,63.28
2023-05-11T03:34:53.896Z,63.58
2023-05-11T03:35:28.795Z,62.47
2023-05-11T03:36:06.371Z,63.22
2023-05-11T03:36:42.098Z,63.13
2023-05-11T03:37:15.106Z,62.88
2023-05-11T03:37:49.368Z,63.13
2023-05-11T03:38:23.915Z,63.88
2023-05-11T03:38:59.325Z,63.33
2023-05-11T03:39:37.024Z,62.70
2023-05-11T03:40:11.864Z,63.92
2023-05-11T03:40:52.561Z,63.25
2023-05-11T03:41:27.726Z,63.55
2023-05-11T03:42:01.139Z,63.65
2023-05-11T03:42:33.549Z,63.53
2023-05-11T03:43:08.681Z,63.83
2023-05-11T03:43:40.841Z,64.22
2023-05-11T03:44:17.371Z,62.92
2023-05-11T03:44:51.497Z,63.83
2023-05-11T03:45:23.598Z,62.95
2023-05-11T03:45:56.326Z,64.63
2023-05-11T03:46:30.766Z,62.40
2023-05-11T03:47:03.792Z,62.83
2023-05-11T03:47:36.132Z,64.70
2023-05-11T03:48:10.044Z,63.88
2023-05-11T03:48:43.621Z,65.10
2023-05-11T03:49:17.639Z,64.68
2023-05-11T03:49:49.831Z,63.83
2023-05-11T03:50:22.783Z,64.10
2023-05-11T03:50:54.526Z,64.47
2023-05-11T03:51:26.235Z,64.60
2023-05-11T03:51:58.923Z,64.28
2023-05-11T03:52:31.554Z,63.92
2023-05-11T03:53:03.456Z,64.45
2023-05-11T03:53:36.212Z,63.90
2023-05-11T03:54:08.971Z,64.73
2023-05-11T03:54:43.162Z,64.35
2023-05-11T03:55:16.421Z,64.53
2023-05-11T03:55:48.163Z,65.03
2023-05-11T03:56:21.570Z,65.97
2023-05-11T03:56:53.260Z,64.85
2023-05-11T03:57:25.517Z,64.18
2023-05-11T03:57:58.192Z,65.18
2023-05-11T03:58:30.413Z,64.60
2023-05-11T03:59:02.532Z,64.72
2023-05-11T03:59:34.541Z,65.30
2023-05-11T04:00:08.107Z,65.40
2023-05-11T04:00:46.764Z,64.22
2023-05-11T04:01:18.662Z,65.32
2023-05-11T04:01:53.176Z,64.72
2023-05-11T04:02:25.000Z,64.65
2023-05-11T04:02:56.791Z,64.80
2023-05-11T04:03:31.016Z,65.18
2023-05-11T04:04:02.896Z,65.35
2023-05-11T04:04:34.772Z,64.88
2023-05-11T04:05:08.195Z,63.80
2023-05-11T04:05:40.599Z,65.80
2023-05-11T04:06:14.307Z,64.38
2023-05-11T04:06:46.993Z,64.20
2023-05-11T04:07:22.399Z,64.25
2023-05-11T04:07:54.067Z,64.97
2023-05-11T04:08:26.697Z,64.50
2023-05-11T04:08:58.420Z,65.20
2023-05-11T04:09:30.121Z,66.35
2023-05-11T04:10:02.928Z,66.22
2023-05-11T04:10:35.069Z,64.85
2023-05-11T04:11:06.694Z,65.35
2023-05-11T04:11:41.338Z,65.72
2023-05-11T04:12:13.067Z,65.60
2023-05-11T04:12:46.809Z,66.18
2023-05-11T04:13:19.422Z,65.15
2023-05-11T04:13:51.093Z,65.72
2023-05-11T04:14:22.810Z,65.30
2023-05-11T04:14:54.459Z,65.07
2023-05-11T04:15:27.093Z,64.63
2023-05-11T04:15:58.743Z,66.07
2023-05-11T04:16:30.561Z,65.72
2023-05-11T04:17:02.260Z,64.95
2023-05-11T04:17:34.923Z,65.38
2023-05-11T04:18:06.701Z,66.30
2023-05-11T04:18:39.826Z,66.07
2023-05-11T04:19:12.467Z,65.93
2023-05-11T04:19:44.160Z,66.18
2023-05-11T04:20:15.972Z,66.60
2023-05-11T04:20:50.146Z,65.95
2023-05-11T04:21:21.879Z,66.13
2023-05-11T04:21:53.592Z,65.97
2023-05-11T04:22:26.162Z,65.45
2023-05-11T04:22:57.822Z,66.13
2023-05-11T04:23:29.468Z,66.93
2023-05-11T04:24:04.572Z,65.22
2023-05-11T04:24:36.183Z,65.75
2023-05-11T04:25:08.382Z,65.82
2023-05-11T04:25:41.013Z,65.82
2023-05-11T04:26:12.740Z,65.90
2023-05-11T04:26:44.383Z,65.57
2023-05-11T04:27:17.480Z,66.30
2023-05-11T04:27:49.144Z,66.20
2023-05-11T04:28:22.107Z,67.88
2023-05-11T04:28:54.704Z,66.80
2023-05-11T04:29:26.398Z,65.82
2023-05-11T04:29:58.062Z,66.22
2023-05-11T04:30:30.712Z,66.32
2023-05-11T04:31:02.407Z,64.80
2023-05-11T04:31:34.694Z,65.22
2023-05-11T04:32:08.184Z,64.95
2023-05-11T04:32:40.878Z,64.55
2023-05-11T04:33:14.560Z,65.32
2023-05-11T04:33:47.573Z,65.88
2023-05-11T04:34:20.391Z,65.10
2023-05-11T04:34:52.334Z,64.70
2023-05-11T04:35:27.077Z,64.35
2023-05-11T04:36:00.225Z,64.20
2023-05-11T04:36:32.963Z,64.80
2023-05-11T04:37:07.346Z,63.42
2023-05-11T04:37:41.127Z,64.85
2023-05-11T04:38:14.204Z,63.72
2023-05-11T04:38:45.831Z,65.45
2023-05-11T04:39:18.936Z,64.63
2023-05-11T04:39:51.467Z,64.30
2023-05-11T04:40:23.123Z,64.97
2023-05-11T04:40:56.384Z,65.30
2023-05-11T04:41:28.089Z,64.18
2023-05-11T04:42:02.769Z,63.60
2023-05-11T04:42:35.678Z,64.68
2023-05-11T04:43:09.015Z,64.07
2023-05-11T04:43:40.738Z,63.60
2023-05-11T04:44:15.035Z,64.70
2023-05-11T04:44:46.743Z,64.85
2023-05-11T04:45:20.845Z,63.17
2023-05-11T04:45:53.555Z,63.55
2023-05-11T04:46:29.561Z,63.85
2023-05-11T04:47:01.407Z,63.08
2023-05-11T04:47:34.264Z,63.40
2023-05-11T04:48:06.692Z,63.90
2023-05-11T04:48:38.576Z,63.33
2023-05-11T04:49:13.423Z,63.67
2023-05-11T04:49:45.131Z,63.67
2023-05-11T04:50:17.186Z,64.03
2023-05-11T04:50:49.825Z,63.70
2023-05-11T04:51:24.538Z,64.65
2023-05-11T04:51:56.275Z,64.07
2023-05-11T04:52:28.418Z,64.32
2023-05-11T04:53:01.044Z,63.58
2023-05-11T04:53:33.236Z,63.85
2023-05-11T04:54:04.944Z,63.45
2023-05-11T04:54:39.169Z,63.85
2023-05-11T04:55:11.114Z,64.28
2023-05-11T04:55:43.778Z,64.13
2023-05-11T04:56:15.470Z,63.90
2023-05-11T04:56:47.359Z,62.83
2023-05-11T04:57:19.534Z,63.60
2023-05-11T04:57:53.219Z,63.65
2023-05-11T04:58:27.535Z,64.72
2023-05-11T04:58:59.166Z,63.63
2023-05-11T04:59:31.023Z,63.15
2023-05-11T05:00:04.335Z,63.33
2023-05-11T05:00:37.098Z,62.95
2023-05-11T05:01:11.822Z,64.20
2023-05-11T05:01:45.600Z,63.42
2023-05-11T05:02:17.225Z,63.17
2023-05-11T05:02:50.910Z,63.67
2023-05-11T05:03:23.633Z,64.63
2023-05-11T05:03:55.454Z,63.60
2023-05-11T05:04:28.575Z,62.83
2023-05-11T05:05:01.626Z,63.60
2023-05-11T05:05:33.454Z,64.10
2023-05-11T05:06:05.249Z,63.50
2023-05-11T05:06:38.287Z,62.72
2023-05-11T05:07:10.559Z,62.97
2023-05-11T05:07:42.265Z,63.05
2023-05-11T05:08:15.004Z,63.72
2023-05-11T05:08:46.708Z,63.60
2023-05-11T05:09:19.272Z,63.80
2023-05-11T05:09:51.072Z,63.30
2023-05-11T05:10:23.164Z,62.65
2023-05-11T05:10:55.763Z,63.38
2023-05-11T05:11:27.516Z,62.33
2023-05-11T05:11:59.185Z,62.40
2023-05-11T05:12:31.841Z,62.90
2023-05-11T05:13:03.885Z,63.28
2023-05-11T05:13:35.837Z,62.90
2023-05-11T05:14:08.422Z,62.28
2023-05-11T05:14:40.102Z,63.28
2023-05-11T05:15:12.212Z,62.75
2023-05-11T05:15:44.853Z,62.17
2023-05-11T05:16:16.977Z,62.22
2023-05-11T05:16:48.837Z,62.92
2023-05-11T05:17:21.520Z,62.08
2023-05-11T05:17:53.323Z,62.28
2023-05-11T05:18:26.495Z,62.00
2023-05-11T05:18:58.249Z,62.42
2023-05-11T05:19:31.794Z,62.00
2023-05-11T05:20:05.062Z,63.03
2023-05-11T05:20:37.012Z,62.40
2023-05-11T05:21:08.659Z,62.08
2023-05-11T05:21:41.617Z,62.50
2023-05-11T05:22:13.270Z,61.85
2023-05-11T05:22:44.941Z,62.10
2023-05-11T05:23:17.552Z,62.53
2023-05-11T05:23:49.467Z,62.38
2023-05-11T05:24:21.134Z,62.40
2023-05-11T05:24:53.823Z,61.75
2023-05-11T05:25:25.817Z,62.22
2023-05-11T05:25:57.648Z,63.40
2023-05-11T05:26:30.285Z,62.30
2023-05-11T05:27:02.198Z,61.83
2023-05-11T05:27:35.438Z,62.30
2023-05-11T05:28:10.289Z,60.97
2023-05-11T05:28:42.123Z,62.30
2023-05-11T05:29:15.479Z,63.25
2023-05-11T05:29:47.422Z,61.90
2023-05-11T05:30:19.670Z,62.67
2023-05-11T05:30:53.825Z,62.00
2023-05-11T05:31:26.364Z,62.00
2023-05-11T05:31:59.902Z,62.35
2023-05-11T05:32:33.272Z,61.65
2023-05-11T05:33:05.169Z,62.28
2023-05-11T05:33:38.644Z,62.83
2023-05-11T05:34:46.959Z,62.85
2023-05-11T05:35:19.393Z,61.78
2023-05-11T05:35:52.013Z,62.78
2023-05-11T05:36:23.736Z,62.28
2023-05-11T05:36:55.522Z,62.25
2023-05-11T05:37:28.184Z,61.92
2023-05-11T05:38:00.005Z,62.15
2023-05-11T05:38:31.703Z,62.03
2023-05-11T05:39:08.956Z,61.90
2023-05-11T05:39:40.741Z,62.38
2023-05-11T05:40:12.589Z,61.95
2023-05-11T05:40:52.735Z,62.25
2023-05-11T05:41:25.605Z,62.58
2023-05-11T05:41:57.294Z,62.20
2023-05-11T05:42:30.784Z,61.85
2023-05-11T05:43:02.761Z,62.95
2023-05-11T05:43:34.832Z,62.75
2023-05-11T05:44:07.655Z,62.75
2023-05-11T05:44:39.746Z,61.42
2023-05-11T05:45:14.558Z,61.20
2023-05-11T05:45:47.751Z,61.65
2023-05-11T05:46:19.699Z,62.25
2023-05-11T05:46:51.662Z,62.60
2023-05-11T05:47:23.408Z,62.13
2023-05-11T05:47:57.106Z,62.60
2023-05-11T05:48:28.792Z,61.83
2023-05-11T05:49:01.486Z,61.95
2023-05-11T05:49:33.185Z,61.88
2023-05-11T05:50:07.826Z,61.75
2023-05-11T05:50:39.496Z,61.70
2023-05-11T05:51:11.497Z,62.38
2023-05-11T05:51:44.463Z,61.45
2023-05-11T05:52:16.183Z,61.58
2023-05-11T05:52:48.345Z,62.20
2023-05-11T05:53:21.482Z,62.30
2023-05-11T05:53:53.169Z,62.47
2023-05-11T05:54:25.841Z,61.25
2023-05-11T05:54:59.587Z,62.03
2023-05-11T05:55:31.355Z,62.03
2023-05-11T05:56:04.794Z,61.78
2023-05-11T05:56:37.525Z,61.72
2023-05-11T05:57:12.271Z,61.63
2023-05-11T05:57:45.039Z,62.65
2023-05-11T05:58:17.700Z,62.73
2023-05-11T05:58:49.406Z,61.63
2023-05-11T05:59:24.239Z,62.97
2023-05-11T06:00:00.590Z,62.03
2023-05-11T06:00:32.571Z,63.40
2023-05-11T06:01:10.622Z,62.25
2023-05-11T06:01:46.220Z,62.03
2023-05-11T06:02:19.640Z,61.70
2023-05-11T06:02:52.353Z,62.03
2023-05-11T06:03:29.833Z,61.60
2023-05-11T06:04:02.223Z,61.60
2023-05-11T06:04:37.396Z,61.70
2023-05-11T06:05:10.865Z,61.42
2023-05-11T06:05:42.680Z,61.33
2023-05-11T06:06:15.520Z,61.77
2023-05-11T06:06:47.416Z,60.47
2023-05-11T06:07:19.088Z,60.97
2023-05-11T06:08:01.817Z,61.88
2023-05-11T06:08:43.436Z,61.25
2023-05-11T06:09:15.057Z,61.88
2023-05-11T06:09:47.193Z,62.13
2023-05-11T06:10:20.699Z,61.03
2023-05-11T06:10:56.224Z,61.53
2023-05-11T06:11:29.268Z,61.13
2023-05-11T06:12:01.708Z,62.20
2023-05-11T06:12:36.406Z,61.47
2023-05-11T06:13:09.561Z,61.60
2023-05-11T06:13:47.094Z,61.60
2023-05-11T06:14:20.312Z,62.08
2023-05-11T06:14:51.998Z,61.38
2023-05-11T06:15:25.052Z,60.88
2023-05-11T06:16:03.153Z,61.22
2023-05-11T06:16:38.998Z,61.42
2023-05-11T06:17:10.869Z,61.13
2023-05-11T06:17:42.551Z,61.03
2023-05-11T06:18:16.744Z,61.05
2023-05-11T06:18:49.413Z,60.78
2023-05-11T06:19:21.174Z,61.13
2023-05-11T06:19:53.821Z,60.88
2023-05-11T06:20:31.794Z,60.70
2023-05-11T06:21:04.666Z,61.28
2023-05-11T06:21:37.336Z,61.08
2023-05-11T06:22:09.248Z,61.22
2023-05-11T06:22:42.157Z,60.70
2023-05-11T06:23:14.062Z,61.15
2023-05-11T06:23:48.391Z,60.92
2023-05-11T06:24:20.472Z,61.22
2023-05-11T06:24:52.348Z,61.40
2023-05-11T06:25:27.824Z,61.10
2023-05-11T06:25:59.628Z,61.00
2023-05-11T06:26:33.963Z,60.97
2023-05-11T06:27:05.705Z,61.17
2023-05-11T06:27:38.285Z,61.28
2023-05-11T06:28:10.910Z,61.70
2023-05-11T06:28:43.260Z,61.50
2023-05-11T06:29:25.094Z,61.47
2023-05-11T06:29:58.068Z,61.30
2023-05-11T06:30:32.505Z,61.15
2023-05-11T06:31:05.209Z,60.20
2023-05-11T06:31:41.224Z,60.17
2023-05-11T06:32:14.364Z,60.40
2023-05-11T06:32:46.731Z,60.70
2023-05-11T06:33:20.762Z,61.10
2023-05-11T06:33:52.451Z,61.05
2023-05-11T06:34:29.471Z,60.20
2023-05-11T06:35:02.173Z,61.15
2023-05-11T06:35:37.568Z,60.70
2023-05-11T06:36:11.736Z,60.60
2023-05-11T06:36:43.493Z,61.47
2023-05-11T06:37:20.676Z,60.33
2023-05-11T06:37:54.647Z,61.10
2023-05-11T06:38:28.511Z,60.53
2023-05-11T06:39:01.676Z,61.05
2023-05-11T06:39:35.382Z,61.05
2023-05-11T06:40:07.816Z,60.85
2023-05-11T06:40:40.453Z,60.67
2023-05-11T06:41:12.161Z,60.40
2023-05-11T06:41:44.471Z,59.72
2023-05-11T06:42:17.092Z,60.22
2023-05-11T06:42:48.860Z,59.97
2023-05-11T06:43:20.530Z,59.78
2023-05-11T06:43:54.696Z,60.10
2023-05-11T06:44:32.032Z,59.85
2023-05-11T06:45:03.862Z,59.65
2023-05-11T06:45:36.922Z,60.00
2023-05-11T06:46:08.586Z,59.67
2023-05-11T06:46:40.331Z,59.92
2023-05-11T06:47:12.970Z,59.58
2023-05-11T06:47:44.643Z,59.60
2023-05-11T06:48:16.349Z,59.92
2023-05-11T06:48:50.253Z,60.53
2023-05-11T06:49:21.951Z,59.38
2023-05-11T06:49:53.600Z,59.80
2023-05-11T06:50:27.754Z,60.55
2023-05-11T06:51:01.511Z,59.42
2023-05-11T06:51:34.129Z,59.65
2023-05-11T06:52:06.385Z,60.00
2023-05-11T06:52:38.060Z,60.42
2023-05-11T06:53:10.740Z,60.33
2023-05-11T06:53:42.506Z,59.88
2023-05-11T06:54:15.176Z,59.83
2023-05-11T06:54:46.796Z,59.90
2023-05-11T06:55:18.468Z,59.40
2023-05-11T06:55:51.145Z,59.83
2023-05-11T06:56:22.862Z,60.17
2023-05-11T06:56:54.511Z,59.50
2023-05-11T06:57:27.140Z,60.13
2023-05-11T06:57:59.239Z,60.30
2023-05-11T06:58:31.453Z,60.63
2023-05-11T06:59:04.109Z,61.25
2023-05-11T06:59:35.783Z,60.88
2023-05-11T07:00:08.196Z,60.67
2023-05-11T07:00:40.825Z,60.95
2023-05-11T07:01:12.499Z,60.00
2023-05-11T07:01:45.474Z,61.30
2023-05-11T07:02:17.231Z,61.05
2023-05-11T07:02:48.911Z,60.85
2023-05-11T07:03:21.543Z,60.80
2023-05-11T07:03:54.980Z,60.20
2023-05-11T07:04:26.752Z,60.45
2023-05-11T07:04:59.495Z,60.60
2023-05-11T07:05:31.445Z,60.15
2023-05-11T07:06:05.699Z,60.08
2023-05-11T07:06:37.328Z,59.78
2023-05-11T07:07:11.278Z,59.53
2023-05-11T07:07:43.888Z,61.00
2023-05-11T07:08:15.598Z,60.00
2023-05-11T07:08:48.264Z,60.10
2023-05-11T07:09:19.917Z,60.70
2023-05-11T07:09:51.568Z,60.17
2023-05-11T07:10:24.470Z,59.92
2023-05-11T07:10:56.213Z,60.07
2023-05-11T07:11:27.920Z,60.38
2023-05-11T07:12:00.574Z,60.33
2023-05-11T07:12:32.266Z,59.60
2023-05-11T07:13:03.897Z,59.88